CST,Max TemperatureF,Mean TemperatureF,Min TemperatureF,Max Dew PointF,MeanDew PointF,Min DewpointF,Max Humidity, Mean Humidity, Min Humidity, Max Sea Level PressureIn, Mean Sea Level PressureIn, Min Sea Level PressureIn, Max VisibilityMiles, Mean VisibilityMiles, Min VisibilityMiles, Max Wind SpeedMPH, Mean Wind SpeedMPH, Max Gust SpeedMPH,PrecipitationIn, CloudCover, Events, WindDirDegrees
2013-12-1,79,67,55,65,61,55,99,84,53,30.20,30.11,29.98,10,10,7,14,4,20,0.00,3,,178
2013-12-2,79,70,60,68,63,60,100,86,57,29.98,29.84,29.74,10,8,0,12,6,43,0.00,1,Fog,202
2013-12-3,79,70,62,68,66,62,99,88,62,29.77,29.71,29.65,10,9,4,14,8,21,0.00,0,,183
2013-12-4,80,74,68,72,70,68,100,91,69,29.80,29.74,29.70,10,6,0,17,11,25,0.00,3,Fog,177
2013-12-5,76,60,44,74,60,37,100,89,76,30.00,29.87,29.78,10,5,0,22,10,28,0.00,8,Fog-Rain,88
2013-12-6,49,43,36,37,34,30,86,72,61,30.37,30.20,29.99,10,10,10,22,16,26,0.00,6,,353
2013-12-7,36,36,35,32,30,28,87,79,72,30.43,30.35,30.28,10,10,10,16,13,23,0.00,8,,353
2013-12-8,49,42,35,46,38,32,94,84,70,30.27,30.14,30.05,10,9,3,10,8,,0.00,8,,1
2013-12-9,54,48,43,54,49,42,100,98,87,30.28,30.09,30.02,10,5,2,21,11,26,0.00,8,Rain,16
2013-12-10,49,44,38,42,32,26,96,63,40,30.47,30.39,30.29,10,10,10,24,14,31,0.00,7,,8
2013-12-11,55,50,46,44,38,33,68,62,56,30.49,30.38,30.31,10,10,10,9,7,,0.00,8,,22
2013-12-12,59,52,45,41,38,32,81,60,37,30.55,30.45,30.33,10,10,10,16,10,20,0.00,6,,33
2013-12-13,69,57,45,62,50,40,93,74,62,30.32,30.06,29.87,10,10,10,10,6,,0.00,6,,31
2013-12-14,74,58,43,55,46,36,94,67,25,30.32,30.05,29.89,10,10,10,26,8,33,0.00,2,,347
2013-12-15,61,48,36,40,34,28,89,68,29,30.43,30.35,30.30,10,9,7,9,6,17,0.00,0,,4
2013-12-16,66,49,32,50,39,29,99,74,24,30.36,30.30,30.24,10,7,0,9,3,,0.00,0,Fog,146
2013-12-17,73,55,37,57,48,38,100,84,40,30.34,30.28,30.23,10,6,0,9,3,,0.00,1,Fog,109
2013-12-18,74,58,42,62,52,43,100,78,42,30.29,30.21,30.09,10,7,0,13,4,17,0.00,1,Fog,126
2013-12-19,76,70,63,67,64,58,99,83,67,30.08,29.94,29.84,10,9,5,28,12,37,0.00,4,Rain,166
2013-12-20,78,72,65,72,69,65,100,93,74,29.86,29.78,29.66,10,6,0,25,15,34,0.00,5,Fog-Rain,170
2013-12-21,79,68,58,71,64,52,98,84,47,29.81,29.65,29.58,10,7,5,25,16,36,0.00,4,Rain,155
2013-12-22,75,62,49,60,46,35,97,60,23,30.33,30.04,29.80,10,10,7,23,9,30,0.00,3,,18
2013-12-23,60,50,39,36,30,23,76,53,25,30.53,30.43,30.33,10,10,10,25,13,29,0.00,0,,19
2013-12-24,63,48,34,50,42,33,96,75,49,30.53,30.43,30.26,10,10,10,12,7,16,0.00,0,,52
2013-12-25,71,60,48,60,55,47,99,90,60,30.32,30.25,30.21,10,9,5,12,4,,0.00,6,Rain,32
2013-12-26,58,55,52,56,52,48,99,88,69,30.38,30.33,30.29,10,9,5,17,10,21,0.02,8,Rain,28
2013-12-27,57,54,50,53,51,48,99,92,77,30.40,30.35,30.30,10,7,3,12,8,,0.05,5,Rain,19
2013-12-28,63,54,45,50,43,27,99,75,26,30.31,30.17,30.06,10,9,4,7,4,,0.00,2,,9
2013-12-29,67,55,43,55,48,42,97,76,48,30.14,30.05,30.00,10,10,10,15,2,16,0.00,5,,58
2013-12-30,59,50,42,51,36,33,77,69,61,30.39,30.26,30.10,10,10,10,24,16,29,0.00,7,Rain,359
2013-12-31,48,46,43,46,38,33,96,74,58,30.45,30.37,30.27,10,10,10,13,7,,0.01,7,Rain,7